Time;durP1;ratioP1;P1;durP2;ratioP2;P2;SDS_P1;SDS_P2;PMS_P1;PMS_P2;Temp;Humidity;BMP_temperature;BMP_pressure;BME280_temperature;BME280_humidity;BME280_pressure;Samples;Min_cycle;Max_cycle;Signal;HPM_P1;HPM_P2
2022/01/27 00:02:11;;;;;;;60.83;27.60;;;;;;;-144.19;100.00;78502.81;6149321;23;20022;-88
2022/01/27 00:04:08;;;;;;;63.72;29.58;;;;;;;-144.19;100.00;78498.88;6141923;23;20025;-87
2022/01/27 00:06:36;;;;;;;57.45;28.10;;;;;;;-144.19;100.00;78481.16;6153354;23;20025;-87
2022/01/27 00:09:18;;;;;;;60.25;27.27;;;;;;;-144.19;100.00;78496.91;6151704;23;20017;-88
2022/01/27 00:11:47;;;;;;;59.38;27.35;;;;;;;-144.19;100.00;78489.03;6152415;23;20104;-87
2022/01/27 00:14:16;;;;;;;61.30;27.92;;;;;;;-144.19;100.00;78485.09;6151878;23;20426;-88
2022/01/27 00:16:52;;;;;;;59.35;26.98;;;;;;;-144.19;100.00;78477.22;6153391;23;20076;-87
2022/01/27 00:19:19;;;;;;;52.28;25.85;;;;;;;-144.19;100.00;78485.09;6152150;23;20109;-87
2022/01/27 00:21:45;;;;;;;56.73;27.97;;;;;;;-144.19;100.00;78481.16;6153833;23;20044;-87
2022/01/27 00:24:11;;;;;;;54.17;26.90;;;;;;;-144.19;100.00;78483.13;6153342;23;20028;-86
2022/01/27 00:26:38;;;;;;;60.87;27.33;;;;;;;-144.19;100.00;78487.06;6152025;23;20022;-86
2022/01/27 00:29:04;;;;;;;58.00;27.67;;;;;;;-144.19;100.00;78477.22;6151573;23;20627;-87
2022/01/27 00:31:31;;;;;;;58.60;28.17;;;;;;;-144.19;100.00;78479.19;6152099;23;20021;-86
2022/01/27 00:33:58;;;;;;;59.85;29.00;;;;;;;-144.19;100.00;78473.28;6151809;23;20018;-87
2022/01/27 00:36:24;;;;;;;56.03;28.30;;;;;;;-144.19;100.00;78471.31;6151533;23;20030;-86
2022/01/27 00:38:51;;;;;;;56.20;27.53;;;;;;;-144.19;100.00;78463.44;6152098;23;20331;-86
2022/01/27 00:41:19;;;;;;;56.28;28.58;;;;;;;-144.19;100.00;78479.19;6152047;23;20334;-86
2022/01/27 00:43:48;;;;;;;53.53;26.48;;;;;;;-144.19;100.00;78469.34;6151360;23;20018;-85
2022/01/27 00:46:17;;;;;;;63.30;28.75;;;;;;;-144.19;100.00;78465.41;6151718;23;20462;-86
2022/01/27 00:48:45;;;;;;;58.05;27.67;;;;;;;-144.19;100.00;78467.38;6153096;23;20022;-87
2022/01/27 00:51:14;;;;;;;57.63;29.27;;;;;;;-144.19;100.00;78465.41;6152184;23;20525;-87
2022/01/27 00:54:19;;;;;;;57.90;30.90;;;;;;;-144.19;100.00;78457.53;6151293;23;20018;-86
2022/01/27 00:56:46;;;;;;;52.88;26.63;;;;;;;-144.19;100.00;78473.28;6148881;23;20017;-87
2022/01/27 01:01:44;;;;;;;59.70;28.17;;;;;;;-144.19;100.00;78449.66;6153674;23;20021;-86
2022/01/27 01:04:11;;;;;;;60.13;29.63;;;;;;;-144.19;100.00;78447.69;6150815;23;20484;-86
2022/01/27 01:06:42;;;;;;;54.78;29.50;;;;;;;-144.19;100.00;78445.72;6153306;23;20035;-87
2022/01/27 01:10:00;;;;;;;62.55;29.10;;;;;;;-144.19;100.00;78463.44;6152798;23;20021;-86
2022/01/27 01:14:46;;;;;;;53.85;27.35;;;;;;;-144.19;100.00;78449.66;6153210;23;20018;-86
2022/01/27 01:17:29;;;;;;;58.13;29.73;;;;;;;-144.19;100.00;78433.91;6152008;23;20104;-86
2022/01/27 01:33:13;;;;;;;49.73;26.30;;;;;;;-144.19;100.00;78414.19;6153089;23;20021;-87
2022/01/27 01:35:51;;;;;;;60.47;27.67;;;;;;;-144.19;100.00;78418.13;6151441;23;20021;-86
2022/01/27 01:38:20;;;;;;;53.40;26.80;;;;;;;-144.19;100.00;78398.44;6151594;23;20043;-86
2022/01/27 01:40:49;;;;;;;58.22;28.98;;;;;;;-144.19;100.00;78414.19;6151326;23;20028;-86
2022/01/27 01:43:17;;;;;;;56.03;29.70;;;;;;;-144.19;100.00;78424.06;6151119;23;20017;-86
2022/01/27 01:45:44;;;;;;;56.00;27.92;;;;;;;-144.19;100.00;78412.22;6151332;23;20021;-86
2022/01/27 01:48:11;;;;;;;56.35;29.42;;;;;;;-144.19;100.00;78402.38;6152516;23;20629;-87
2022/01/27 01:50:38;;;;;;;59.47;29.77;;;;;;;-144.19;100.00;78380.72;6153057;23;20027;-86
2022/01/27 01:53:05;;;;;;;55.80;28.15;;;;;;;-144.19;100.00;78374.81;6152449;23;20021;-87
2022/01/27 01:55:32;;;;;;;60.10;29.93;;;;;;;-144.19;100.00;78355.13;6153956;23;20032;-86
2022/01/27 01:58:00;;;;;;;62.20;29.92;;;;;;;-144.19;100.00;78359.06;6151316;23;20022;-87
2022/01/27 02:00:27;;;;;;;55.15;30.08;;;;;;;-144.19;100.00;78366.94;6152982;23;20462;-87
2022/01/27 02:02:54;;;;;;;;;;;;;;;-144.19;100.00;78386.63;6153487;23;20031;-86
2022/01/27 02:05:26;;;;;;;56.22;28.38;;;;;;;-144.19;100.00;78372.84;6150911;23;19916;-86
2022/01/27 02:08:12;;;;;;;60.30;30.70;;;;;;;-144.19;100.00;78370.88;6151502;23;20022;-87
2022/01/27 02:17:58;;;;;;;57.83;29.30;;;;;;;-144.19;100.00;78378.75;6152874;23;20021;-87
2022/01/27 02:24:56;;;;;;;60.95;31.67;;;;;;;-144.19;100.00;78357.09;6179426;23;20044;-90
2022/01/27 02:30:32;;;;;;;58.15;30.05;;;;;;;-144.19;100.00;78363.00;6179458;23;20040;-88
2022/01/27 02:33:03;;;;;;;55.42;28.80;;;;;;;-144.19;100.00;78370.88;6154780;23;20026;-89
2022/01/27 02:35:44;;;;;;;58.45;30.17;;;;;;;-144.19;100.00;78355.13;6160670;23;20028;-90
2022/01/27 02:38:24;;;;;;;63.58;31.40;;;;;;;-144.19;100.00;78347.25;6154550;23;20021;-89
2022/01/27 02:41:02;;;;;;;56.65;28.45;;;;;;;-144.19;100.00;78370.88;6153896;23;20037;-90
2022/01/27 02:44:19;;;;;;;58.50;30.10;;;;;;;-144.19;100.00;78363.00;6151672;23;20026;-87
2022/01/27 02:47:45;;;;;;;60.85;31.27;;;;;;;-144.19;100.00;78345.28;6119905;23;20056;-90
2022/01/27 02:50:23;;;;;;;57.72;29.08;;;;;;;-144.19;100.00;78364.97;6155143;23;20028;-88
2022/01/27 02:53:47;;;;;;;52.00;29.50;;;;;;;-144.19;100.00;78363.00;6042557;23;20080;-89
2022/01/27 02:56:24;;;;;;;52.90;27.85;;;;;;;-144.19;100.00;78355.13;6034295;23;20081;-89
2022/01/27 02:59:24;;;;;;;55.97;29.48;;;;;;;-144.19;100.00;78351.19;5999523;23;20060;-91
2022/01/27 03:02:01;;;;;;;51.05;28.20;;;;;;;-144.19;100.00;78327.56;6011431;23;20061;-87
2022/01/27 03:04:37;;;;;;;55.13;30.25;;;;;;;-144.19;100.00;78323.63;6154152;23;20018;-88
2022/01/27 03:07:47;;;;;;;56.35;29.33;;;;;;;-144.19;100.00;78323.63;6060709;23;20015;-88
2022/01/27 03:13:47;;;;;;;49.28;27.77;;;;;;;-144.19;100.00;78301.94;6126359;23;20021;-87
2022/01/27 03:16:31;;;;;;;52.10;27.92;;;;;;;-144.19;100.00;78315.75;6153312;23;20037;-88
2022/01/27 03:19:00;;;;;;;52.13;28.38;;;;;;;-144.19;100.00;78303.94;6154021;23;20037;-89
2022/01/27 03:21:36;;;;;;;50.75;26.20;;;;;;;-144.19;100.00;78303.94;6154494;23;20022;-89
2022/01/27 03:24:43;;;;;;;46.28;26.38;;;;;;;-144.19;100.00;78311.81;6129165;23;20026;-88
2022/01/27 03:27:24;;;;;;;51.78;26.75;;;;;;;-144.19;100.00;78282.25;6147469;23;20077;-87
2022/01/27 03:29:58;;;;;;;47.70;25.80;;;;;;;-144.19;100.00;78268.47;6151737;23;20017;-88
2022/01/27 03:32:58;;;;;;;49.15;26.45;;;;;;;-144.19;100.00;78272.41;6116706;23;20050;-87
2022/01/27 03:35:43;;;;;;;46.22;25.42;;;;;;;-144.19;100.00;78268.47;6124970;23;20380;-87
2022/01/27 03:38:10;;;;;;;49.85;26.85;;;;;;;-144.19;100.00;78258.63;6152266;23;20021;-87
2022/01/27 03:41:33;;;;;;;47.08;26.40;;;;;;;-144.19;100.00;78268.47;6116834;23;20078;-88
2022/01/27 03:44:04;;;;;;;48.40;26.45;;;;;;;-144.19;100.00;78270.44;6117191;23;20019;-89
2022/01/27 03:46:52;;;;;;;47.15;26.08;;;;;;;-144.19;100.00;78262.56;6094255;23;20062;-88
2022/01/27 03:49:26;;;;;;;45.83;25.15;;;;;;;-144.19;100.00;78266.50;6092912;23;20479;-89
2022/01/27 03:52:10;;;;;;;48.50;27.80;;;;;;;-144.19;100.00;78252.72;6117388;23;20026;-89
2022/01/27 03:54:41;;;;;;;43.17;25.85;;;;;;;-144.19;100.00;78248.78;6093794;23;20067;-87
2022/01/27 03:57:26;;;;;;;48.22;27.20;;;;;;;-144.19;100.00;78252.72;6117179;23;20029;-87
2022/01/27 04:00:02;;;;;;;45.60;24.73;;;;;;;-144.19;100.00;78260.59;6093518;23;20391;-86
2022/01/27 04:02:55;;;;;;;45.10;25.60;;;;;;;-144.19;100.00;78242.88;6094311;23;20498;-89
2022/01/27 04:06:05;;;;;;;46.55;25.65;;;;;;;-144.19;100.00;78217.28;6094248;23;20018;-87
2022/01/27 04:12:22;;;;;;;48.80;26.92;;;;;;;-144.19;100.00;78209.41;6049995;23;20094;-89
2022/01/27 04:18:36;;;;;;;45.30;26.55;;;;;;;-144.19;100.00;78221.22;6096585;23;20026;-88
2022/01/27 04:22:05;;;;;;;45.40;25.60;;;;;;;-144.19;100.00;78223.19;6176933;23;20088;-89
2022/01/27 04:24:58;;;;;;;45.30;24.30;;;;;;;-144.19;100.00;78233.03;6066099;23;20055;-86
2022/01/27 04:27:35;;;;;;;44.00;26.73;;;;;;;-144.19;100.00;78225.16;6063259;23;20051;-89
2022/01/27 04:30:37;;;;;;;44.35;25.52;;;;;;;-144.19;100.00;78225.16;6136000;23;20022;-89
2022/01/27 04:33:18;;;;;;;40.35;21.48;;;;;;;-144.19;100.00;78233.03;6142687;23;20048;-88
2022/01/27 04:35:59;;;;;;;46.92;26.27;;;;;;;-144.19;100.00;78221.22;6152780;23;20041;-88
2022/01/27 04:41:53;;;;;;;47.42;25.88;;;;;;;-144.19;100.00;78221.22;6120898;23;20025;-89
2022/01/27 04:45:03;;;;;;;50.58;26.13;;;;;;;-144.19;100.00;78217.28;6150798;23;20029;-89
2022/01/27 04:47:49;;;;;;;44.38;25.38;;;;;;;-144.19;100.00;78201.53;6144450;23;20025;-88
2022/01/27 04:50:16;;;;;;;49.60;27.25;;;;;;;-144.19;100.00;78183.81;6145285;23;20029;-86
2022/01/27 04:52:47;;;;;;;49.25;26.83;;;;;;;-144.19;100.00;78177.91;6151563;23;20049;-87
2022/01/27 04:55:24;;;;;;;45.90;25.30;;;;;;;-144.19;100.00;78166.06;6151561;23;20017;-86
2022/01/27 04:58:15;;;;;;;47.13;25.92;;;;;;;-144.19;100.00;78166.06;6153873;23;20025;-87
2022/01/27 05:00:48;;;;;;;45.35;27.05;;;;;;;-144.19;100.00;78166.06;6150670;23;20077;-87
2022/01/27 05:06:24;;;;;;;47.83;24.85;;;;;;;-144.19;100.00;78162.13;6159218;23;20040;-86
2022/01/27 05:08:55;;;;;;;46.83;25.92;;;;;;;-144.19;100.00;78152.28;6151714;23;20052;-86
2022/01/27 05:11:33;;;;;;;47.55;27.08;;;;;;;-144.19;100.00;78156.22;6151348;23;20032;-86
2022/01/27 05:14:23;;;;;;;46.85;25.33;;;;;;;-144.19;100.00;78152.28;6151674;23;20071;-88
2022/01/27 05:16:59;;;;;;;50.92;25.40;;;;;;;-144.19;100.00;78126.69;6148985;23;20050;-88
2022/01/27 05:19:34;;;;;;;44.65;24.05;;;;;;;-144.19;100.00;78126.69;6150289;23;20027;-88
2022/01/27 05:22:05;;;;;;;45.88;25.27;;;;;;;-144.19;100.00;78116.84;6148651;23;20022;-87
2022/01/27 05:24:33;;;;;;;;;;;;;;;-144.19;100.00;78118.81;6170530;23;20024;-88
2022/01/27 05:27:00;;;;;;;48.63;24.38;;;;;;;-144.19;100.00;78107.00;6173582;23;19932;-87
2022/01/27 05:29:40;;;;;;;46.58;26.80;;;;;;;-144.19;100.00;78116.84;6173550;23;20034;-87
2022/01/27 05:32:58;;;;;;;45.72;24.60;;;;;;;-144.19;100.00;78116.84;6065094;23;20023;-86
2022/01/27 05:35:35;;;;;;;44.25;24.48;;;;;;;-144.19;100.00;78128.66;6072836;23;20047;-87
2022/01/27 05:38:11;;;;;;;43.33;23.55;;;;;;;-144.19;100.00;78110.94;6176538;23;20073;-87
2022/01/27 05:46:12;;;;;;;;;;;;;;;;;;;;;
2022/01/27 05:49:06;;;;;;;47.58;24.08;;;;;;;-144.19;100.00;78089.28;6134211;23;20019;-87
2022/01/27 05:51:37;;;;;;;49.55;24.45;;;;;;;-144.19;100.00;78087.31;6173996;23;20076;-86
2022/01/27 05:54:10;;;;;;;47.13;24.60;;;;;;;-144.19;100.00;78095.19;6175824;23;20013;-86
2022/01/27 05:56:38;;;;;;;44.33;25.77;;;;;;;-144.19;100.00;78075.50;6175692;23;20025;-87
2022/01/27 05:59:06;;;;;;;41.00;24.48;;;;;;;-144.19;100.00;78051.88;6175740;23;20065;-86
2022/01/27 06:01:44;;;;;;;39.88;24.52;;;;;;;-144.19;100.00;78055.81;6175267;23;20021;-85
2022/01/27 06:04:12;;;;;;;39.30;22.85;;;;;;;-144.19;100.00;78061.72;6174389;23;20022;-86
2022/01/27 06:06:45;;;;;;;44.47;23.83;;;;;;;-144.19;100.00;78071.56;6174243;23;20025;-87
2022/01/27 06:09:15;;;;;;;47.85;24.52;;;;;;;-144.19;100.00;78059.75;6176403;23;20037;-89
2022/01/27 06:11:50;;;;;;;39.45;24.25;;;;;;;-144.19;100.00;78061.72;6176070;23;20025;-88
2022/01/27 06:14:24;;;;;;;45.13;25.40;;;;;;;-144.19;100.00;78063.69;6176041;23;20045;-87
2022/01/27 06:17:08;;;;;;;46.83;23.30;;;;;;;-144.19;100.00;78055.81;6175269;23;20022;-88
2022/01/27 06:19:45;;;;;;;40.95;24.45;;;;;;;-144.19;100.00;78063.69;6175554;23;20069;-86
2022/01/27 06:22:19;;;;;;;38.55;22.90;;;;;;;-144.19;100.00;78067.63;6176311;23;20021;-86
2022/01/27 06:24:47;;;;;;;52.05;23.65;;;;;;;-144.19;100.00;78040.06;6176192;23;20009;-87
2022/01/27 06:27:22;;;;;;;43.45;25.88;;;;;;;-144.19;100.00;78044.00;6176576;23;20021;-87
2022/01/27 06:29:50;;;;;;;41.67;23.73;;;;;;;-144.19;100.00;78038.09;6176012;23;20021;-87
2022/01/27 06:32:21;;;;;;;40.50;24.10;;;;;;;-144.19;100.00;78034.16;6176090;23;20021;-87
2022/01/27 06:34:52;;;;;;;45.10;25.10;;;;;;;-144.19;100.00;78047.94;6175752;23;20013;-87
2022/01/27 06:38:07;;;;;;;43.20;23.35;;;;;;;-144.19;100.00;78032.19;6087074;23;20023;-86
2022/01/27 06:44:47;;;;;;;39.08;23.27;;;;;;;-144.19;100.00;78042.03;6115964;23;20021;-88
2022/01/27 06:47:15;;;;;;;45.63;24.58;;;;;;;-144.19;100.00;78044.00;6092086;23;20089;-88
2022/01/27 06:49:51;;;;;;;45.75;25.80;;;;;;;-144.19;100.00;78044.00;6115854;23;20073;-87
2022/01/27 06:52:28;;;;;;;37.88;23.02;;;;;;;-144.19;100.00;78063.69;6175199;23;20012;-88
2022/01/27 06:54:57;;;;;;;48.87;25.43;;;;;;;-144.19;100.00;78053.84;6175824;23;20030;-87
2022/01/27 06:57:24;;;;;;;40.28;22.70;;;;;;;-144.19;100.00;78053.84;6176427;23;20077;-87
2022/01/27 06:59:54;;;;;;;45.20;24.27;;;;;;;-144.19;100.00;78044.00;6175191;23;20025;-87
2022/01/27 07:02:31;;;;;;;42.33;22.70;;;;;;;-144.19;100.00;78042.03;6175913;23;20084;-87
2022/01/27 07:05:08;;;;;;;44.00;22.15;;;;;;;-144.19;100.00;78044.00;6175493;23;20021;-88
2022/01/27 07:07:42;;;;;;;37.30;21.35;;;;;;;-144.19;100.00;78059.75;6176553;23;20029;-87
2022/01/27 07:10:10;;;;;;;37.45;21.55;;;;;;;-144.19;100.00;78049.91;6179048;23;20033;-87
2022/01/27 07:12:42;;;;;;;35.47;22.10;;;;;;;-144.19;100.00;78045.97;6177531;23;20069;-87
2022/01/27 07:15:22;;;;;;;38.58;23.00;;;;;;;-144.19;100.00;78040.06;6179743;23;20024;-87
2022/01/27 07:17:50;;;;;;;37.83;22.30;;;;;;;-144.19;100.00;78032.19;6179409;23;20017;-86
2022/01/27 07:20:27;;;;;;;37.65;20.80;;;;;;;-144.19;100.00;78055.81;6177493;23;20037;-87
2022/01/27 07:23:18;;;;;;;36.55;21.13;;;;;;;-144.19;100.00;78051.88;6176763;23;20021;-86
2022/01/27 07:25:52;;;;;;;37.33;20.92;;;;;;;-144.19;100.00;78036.13;6176232;23;20044;-87
2022/01/27 07:28:23;;;;;;;34.10;19.45;;;;;;;-144.19;100.00;78053.84;6177225;23;20053;-87
2022/01/27 07:30:56;;;;;;;35.88;21.40;;;;;;;-144.19;100.00;78047.94;6176616;23;20030;-88
2022/01/27 07:33:27;;;;;;;40.45;22.42;;;;;;;-144.19;100.00;78028.22;6177951;23;20021;-88
2022/01/27 07:35:57;;;;;;;37.08;21.15;;;;;;;-144.19;100.00;78036.13;6177354;23;20015;-88
2022/01/27 07:38:34;;;;;;;36.90;21.15;;;;;;;-144.19;100.00;78047.94;6178057;23;20022;-87
2022/01/27 07:41:15;;;;;;;35.47;21.42;;;;;;;-144.19;100.00;78036.13;6178768;23;20013;-88
2022/01/27 07:43:50;;;;;;;34.78;21.30;;;;;;;-144.19;100.00;78032.19;6177275;23;20026;-86
2022/01/27 07:46:18;;;;;;;37.33;21.02;;;;;;;-144.19;100.00;78040.06;6177382;23;20049;-88
2022/01/27 07:48:56;;;;;;;32.78;19.48;;;;;;;-144.19;100.00;78047.94;6178240;23;20076;-87
2022/01/27 07:51:38;;;;;;;31.25;19.85;;;;;;;-144.19;100.00;78040.06;6177253;23;20029;-86
2022/01/27 07:54:21;;;;;;;37.40;22.17;;;;;;;-144.19;100.00;78036.13;6176736;23;20025;-87
2022/01/27 07:56:55;;;;;;;31.75;20.08;;;;;;;-144.19;100.00;78036.13;6177260;23;20400;-89
2022/01/27 08:00:05;;;;;;;36.35;20.00;;;;;;;-144.19;100.00;78028.22;6178053;23;20053;-87
2022/01/27 08:02:34;;;;;;;33.70;20.75;;;;;;;-144.19;100.00;78032.19;6176101;23;20032;-88
2022/01/27 08:05:31;;;;;;;30.52;18.15;;;;;;;-144.19;100.00;78040.06;6175766;23;20057;-87
2022/01/27 08:08:22;;;;;;;30.10;17.48;;;;;;;-144.19;100.00;78051.88;6176563;23;20370;-88
2022/01/27 08:14:55;;;;;;;33.35;18.77;;;;;;;-144.19;100.00;78040.06;6058289;23;20092;-88
2022/01/27 08:17:25;;;;;;;32.85;19.02;;;;;;;-144.19;100.00;78032.19;6063049;23;20094;-89
2022/01/27 08:19:58;;;;;;;28.20;17.73;;;;;;;-144.19;100.00;78034.16;6176449;23;20056;-89
2022/01/27 08:24:55;;;;;;;25.38;16.23;;;;;;;-144.19;100.00;78026.28;6152293;23;20018;-88
2022/01/27 08:27:26;;;;;;;26.87;16.43;;;;;;;-144.19;100.00;78030.22;6150360;23;20021;-89
2022/01/27 08:30:00;;;;;;;24.20;15.73;;;;;;;-144.19;100.00;78024.31;6154293;23;20402;-89
2022/01/27 08:35:17;;;;;;;24.25;15.82;;;;;;;-144.19;100.00;78004.59;6154362;23;20017;-88
2022/01/27 08:37:44;;;;;;;25.73;15.68;;;;;;;-144.19;100.00;78002.63;6152230;23;20349;-89
2022/01/27 08:40:12;;;;;;;;;;;;;;;-144.19;100.00;78000.66;6153371;23;20021;-89
2022/01/27 08:43:00;;;;;;;24.08;14.73;;;;;;;-144.19;100.00;77998.69;6153137;23;19924;-89
2022/01/27 08:45:26;;;;;;;24.40;14.57;;;;;;;-144.19;100.00;77988.84;6154005;23;20021;-88
2022/01/27 08:47:56;;;;;;;25.95;15.82;;;;;;;-144.19;100.00;77973.09;6152329;23;20027;-89
2022/01/27 08:50:24;;;;;;;24.77;14.68;;;;;;;-144.19;100.00;77982.94;6152490;23;20353;-89
2022/01/27 08:52:51;;;;;;;23.00;16.27;;;;;;;-144.19;100.00;77965.22;6151597;23;20473;-88
2022/01/27 08:55:20;;;;;;;25.63;15.98;;;;;;;-144.19;100.00;77959.31;6153118;23;20398;-88
2022/01/27 08:57:46;;;;;;;23.02;14.00;;;;;;;-144.19;100.00;77955.38;6153662;23;20028;-88
2022/01/27 09:00:13;;;;;;;22.33;14.70;;;;;;;-144.19;100.00;77929.78;6152422;23;20025;-89
2022/01/27 09:02:40;;;;;;;23.10;15.45;;;;;;;-144.19;100.00;77933.72;6151642;23;20264;-88
2022/01/27 09:05:07;;;;;;;22.08;14.95;;;;;;;-144.19;100.00;77935.69;6152058;23;20205;-89
2022/01/27 09:07:34;;;;;;;22.85;14.65;;;;;;;-144.19;100.00;77929.78;6151977;23;20022;-88
2022/01/27 09:10:00;;;;;;;;;;;;;;;-144.19;100.00;77933.72;6154207;23;20021;-89
2022/01/27 09:12:27;;;;;;;22.08;14.80;;;;;;;-144.19;100.00;77921.91;6151659;23;19917;-88
2022/01/27 09:14:54;;;;;;;22.67;15.23;;;;;;;-144.19;100.00;77933.72;6151620;23;20017;-89
2022/01/27 09:17:25;;;;;;;;;;;;;;;-144.19;100.00;77914.03;6152090;23;20018;-88
2022/01/27 09:19:52;;;;;;;20.75;14.13;;;;;;;-144.19;100.00;77902.22;6153349;23;19917;-88
2022/01/27 09:22:19;;;;;;;;;;;;;;;-144.19;100.00;77914.03;6152218;23;20026;-88
2022/01/27 09:24:52;;;;;;;21.75;14.27;;;;;;;-144.19;100.00;77902.22;6151572;23;19917;-89
2022/01/27 09:27:19;;;;;;;19.13;13.60;;;;;;;-144.19;100.00;77894.34;6151640;23;20025;-89
2022/01/27 09:29:47;;;;;;;;;;;;;;;-144.19;100.00;77882.53;6153772;23;20018;-88
2022/01/27 09:32:15;;;;;;;18.23;13.05;;;;;;;-144.19;100.00;77876.63;6151489;23;20337;-88
2022/01/27 09:34:43;;;;;;;19.65;13.85;;;;;;;-144.19;100.00;77874.66;6153628;23;20025;-89
2022/01/27 09:37:10;;;;;;;21.02;13.88;;;;;;;-144.19;100.00;77876.63;6153530;23;20033;-88
2022/01/27 09:39:37;;;;;;;21.45;14.00;;;;;;;-144.19;100.00;77870.72;6152459;23;20021;-89
2022/01/27 09:42:06;;;;;;;20.52;13.27;;;;;;;-144.19;100.00;77882.53;6153272;23;20121;-88
2022/01/27 09:44:34;;;;;;;23.65;13.63;;;;;;;-144.19;100.00;77870.72;6153687;23;20028;-89
2022/01/27 09:47:06;;;;;;;20.08;13.23;;;;;;;-144.19;100.00;77864.81;6152410;23;20442;-88
2022/01/27 09:49:37;;;;;;;21.38;13.68;;;;;;;-144.19;100.00;77866.78;6151991;23;20021;-88
2022/01/27 09:52:05;;;;;;;20.98;13.80;;;;;;;-144.19;100.00;77854.97;6151440;23;20033;-89
2022/01/27 09:54:32;;;;;;;21.27;14.15;;;;;;;-144.19;100.00;77858.91;6151521;23;20018;-88
2022/01/27 09:56:59;;;;;;;20.50;14.20;;;;;;;-144.19;100.00;77847.09;6152331;23;20060;-87
2022/01/27 09:59:26;;;;;;;16.88;12.93;;;;;;;-144.19;100.00;77851.03;6153500;23;20021;-88
2022/01/27 10:01:59;;;;;;;20.75;13.80;;;;;;;-144.19;100.00;77847.09;6152134;23;20025;-88
2022/01/27 10:04:50;;;;;;;21.50;13.07;;;;;;;-144.19;100.00;77856.94;6151646;23;20021;-88
2022/01/27 10:07:27;;;;;;;20.50;14.45;;;;;;;-144.19;100.00;77835.25;6152171;23;20105;-88
2022/01/27 10:10:03;;;;;;;19.63;13.27;;;;;;;-144.19;100.00;77845.13;6151925;23;20024;-89
2022/01/27 10:12:49;;;;;;;19.35;13.50;;;;;;;-144.19;100.00;77847.09;6151489;23;20055;-89
2022/01/27 10:15:21;;;;;;;17.55;11.77;;;;;;;-144.19;100.00;77835.25;6153828;23;20024;-89
2022/01/27 10:18:13;;;;;;;19.25;12.95;;;;;;;-144.19;100.00;77841.19;6152551;23;20022;-89
2022/01/27 10:21:01;;;;;;;17.55;11.65;;;;;;;-144.19;100.00;77817.53;6151749;23;20030;-88
2022/01/27 10:23:33;;;;;;;20.05;13.35;;;;;;;-144.19;100.00;77819.50;6163992;23;20026;-89
2022/01/27 10:26:12;;;;;;;17.83;12.10;;;;;;;-144.19;100.00;77829.34;6152051;23;20021;-89
2022/01/27 10:31:21;;;;;;;16.65;11.52;;;;;;;-144.19;100.00;77817.53;6152910;23;20032;-88
2022/01/27 10:33:53;;;;;;;17.55;11.65;;;;;;;-144.19;100.00;77811.63;6151141;23;20466;-88
2022/01/27 10:36:25;;;;;;;16.27;11.35;;;;;;;-144.19;100.00;77823.44;6151851;23;20021;-88
2022/01/27 10:39:00;;;;;;;16.65;11.63;;;;;;;-144.19;100.00;77817.53;6151587;23;20017;-87
2022/01/27 10:41:29;;;;;;;18.98;12.60;;;;;;;-144.19;100.00;77807.69;6151759;23;20366;-88
2022/01/27 10:44:17;;;;;;;19.13;12.77;;;;;;;-144.19;100.00;77823.44;6153688;23;20029;-89
2022/01/27 10:47:18;;;;;;;18.05;12.32;;;;;;;-144.19;100.00;77823.44;6155070;23;20025;-89
2022/01/27 10:49:52;;;;;;;19.13;12.20;;;;;;;-144.19;100.00;77811.63;6153768;23;20457;-89
2022/01/27 10:52:30;;;;;;;19.77;13.55;;;;;;;-144.19;100.00;77791.94;6153146;23;20480;-89
2022/01/27 10:54:57;;;;;;;;;;;;;;;-144.19;100.00;77803.75;6153903;23;20017;-89
2022/01/27 10:57:24;;;;;;;18.25;12.35;;;;;;;-144.19;100.00;77805.72;6155214;23;19917;-88
2022/01/27 11:00:07;;;;;;;20.00;13.15;;;;;;;-144.19;100.00;77784.06;6155498;23;20028;-89
2022/01/27 11:02:49;;;;;;;20.15;12.52;;;;;;;-144.19;100.00;77782.09;6154341;23;20021;-89
2022/01/27 11:05:25;;;;;;;16.05;11.35;;;;;;;-144.19;100.00;77784.06;6153437;23;20025;-89
2022/01/27 11:07:52;;;;;;;20.65;12.10;;;;;;;-144.19;100.00;77780.13;6153501;23;20022;-89
2022/01/27 11:10:25;;;;;;;19.17;13.20;;;;;;;-144.19;100.00;77768.31;6155183;23;20029;-91
2022/01/27 11:12:52;;;;;;;23.60;12.75;;;;;;;-144.19;100.00;77774.22;6153200;23;20357;-89
2022/01/27 11:15:20;;;;;;;18.92;12.93;;;;;;;-144.19;100.00;77780.13;6153266;23;20088;-90
2022/01/27 11:17:48;;;;;;;21.02;14.27;;;;;;;-144.19;100.00;77766.34;6153653;23;20387;-90
2022/01/27 11:20:51;;;;;;;19.13;13.10;;;;;;;-144.19;100.00;77744.69;6175218;23;20029;-88
2022/01/27 11:23:47;;;;;;;21.10;12.52;;;;;;;-144.19;100.00;77752.56;6152789;23;20029;-88
2022/01/27 11:26:14;;;;;;;20.92;14.02;;;;;;;-144.19;100.00;77742.72;6154496;23;20045;-89
2022/01/27 11:28:42;;;;;;;21.45;13.80;;;;;;;-144.19;100.00;77744.69;6154333;23;20047;-89
2022/01/27 11:31:18;;;;;;;19.73;13.77;;;;;;;-144.19;100.00;77732.88;6153376;23;20037;-89
2022/01/27 11:33:58;;;;;;;23.33;15.55;;;;;;;-144.19;100.00;77732.88;6152586;23;20433;-90
2022/01/27 11:36:25;;;;;;;18.23;13.00;;;;;;;-144.19;100.00;77736.81;6153031;23;20014;-89
2022/01/27 11:38:51;;;;;;;25.13;14.98;;;;;;;-144.19;100.00;77734.84;6153333;23;20021;-89
2022/01/27 11:41:44;;;;;;;20.27;14.50;;;;;;;-144.19;100.00;77725.00;6154678;23;20021;-89
2022/01/27 11:44:43;;;;;;;22.40;15.10;;;;;;;-144.19;100.00;77736.81;6152148;23;20018;-90
2022/01/27 11:47:10;;;;;;;21.98;13.85;;;;;;;-144.19;100.00;77734.84;6141025;23;20503;-89
2022/01/27 11:50:11;;;;;;;27.48;14.95;;;;;;;-144.19;100.00;77717.13;6153378;23;20473;-89
2022/01/27 11:52:52;;;;;;;26.23;16.27;;;;;;;-144.19;100.00;77701.38;6152183;23;20382;-90
2022/01/27 11:55:24;;;;;;;24.08;16.10;;;;;;;-144.19;100.00;77697.44;6153106;23;20025;-90
2022/01/27 11:57:59;;;;;;;22.38;14.85;;;;;;;-144.19;100.00;77709.25;6161014;23;20049;-87
2022/01/27 12:00:30;;;;;;;25.02;15.65;;;;;;;-144.19;100.00;77705.31;6154778;23;20080;-89
2022/01/27 12:02:57;;;;;;;22.50;15.45;;;;;;;-144.19;100.00;77691.53;6152487;23;20025;-88
2022/01/27 12:05:27;;;;;;;21.73;15.02;;;;;;;-144.19;100.00;77685.63;6154082;23;20061;-89
2022/01/27 12:08:09;;;;;;;24.10;15.85;;;;;;;-144.19;100.00;77685.63;6152595;23;20470;-89
2022/01/27 12:10:50;;;;;;;24.63;15.95;;;;;;;-144.19;100.00;77671.84;6152810;23;20028;-89
2022/01/27 12:16:38;;;;;;;20.20;13.30;;;;;;;-144.19;100.00;77689.56;6154461;23;20022;-90
2022/01/27 12:19:10;;;;;;;21.27;14.80;;;;;;;-144.19;100.00;77679.72;6152197;23;20036;-90
2022/01/27 12:22:04;;;;;;;19.52;13.35;;;;;;;-144.19;100.00;77675.78;6152697;23;20021;-89
2022/01/27 12:24:32;;;;;;;18.67;13.85;;;;;;;-144.19;100.00;77677.75;6150438;23;20340;-89
2022/01/27 12:27:04;;;;;;;19.92;13.05;;;;;;;-144.19;100.00;77673.81;6151933;23;20029;-89
2022/01/27 12:29:34;;;;;;;18.67;12.45;;;;;;;-144.19;100.00;77697.44;6153080;23;20045;-89
2022/01/27 12:32:20;;;;;;;19.88;12.65;;;;;;;-144.19;100.00;77665.94;6151431;23;20021;-89
2022/01/27 12:34:49;;;;;;;22.13;13.80;;;;;;;-144.19;100.00;77665.94;6153523;23;20025;-89
2022/01/27 12:37:18;;;;;;;19.63;13.38;;;;;;;-144.19;100.00;77640.34;6151682;23;20021;-89
2022/01/27 12:39:57;;;;;;;18.73;13.15;;;;;;;-144.19;100.00;77650.19;6152261;23;20018;-90
2022/01/27 12:42:38;;;;;;;21.92;13.90;;;;;;;-144.19;100.00;77642.31;6151365;23;20036;-89
2022/01/27 12:45:14;;;;;;;20.35;14.50;;;;;;;-144.19;100.00;77646.25;6152705;23;20048;-89
2022/01/27 12:47:42;;;;;;;21.20;13.60;;;;;;;-144.19;100.00;77648.22;6151962;23;20465;-88
2022/01/27 12:50:12;;;;;;;18.63;13.30;;;;;;;-144.19;100.00;77630.50;6152576;23;20031;-89
2022/01/27 12:52:43;;;;;;;19.60;13.32;;;;;;;-144.19;100.00;77634.44;6151222;23;20021;-88